createdAt,value
2022-12-11T00:00:46.923Z,89614.53
2022-12-11T00:03:16.428Z,89582.81
2022-12-11T00:05:43.336Z,89675.50
2022-12-11T00:08:10.115Z,89613.88
2022-12-11T00:10:38.024Z,89569.06
2022-12-11T00:13:05.271Z,89589.53
2022-12-11T00:15:32.005Z,89644.97
2022-12-11T00:17:58.634Z,89626.91
2022-12-11T00:20:25.361Z,89589.69
2022-12-11T00:22:51.984Z,89587.88
2022-12-11T00:25:18.744Z,89577.94
2022-12-11T00:27:46.727Z,89587.69
2022-12-11T00:30:14.298Z,89540.09
2022-12-11T00:32:41.148Z,89567.34
2022-12-11T00:35:08.685Z,89574.38
2022-12-11T00:37:37.020Z,89619.56
2022-12-11T00:40:03.996Z,89585.22
2022-12-11T00:42:30.582Z,89582.50
2022-12-11T00:44:57.223Z,89584.25
2022-12-11T00:47:23.901Z,89589.56
2022-12-11T00:49:50.561Z,89557.31
2022-12-11T00:52:18.032Z,89571.22
2022-12-11T00:54:45.136Z,89536.69
2022-12-11T00:57:11.785Z,89529.50
2022-12-11T00:59:38.607Z,89535.38
2022-12-11T01:02:05.211Z,89543.34
2022-12-11T01:04:31.898Z,89542.72
2022-12-11T01:06:58.561Z,89513.97
2022-12-11T01:09:48.663Z,89520.97
2022-12-11T01:12:15.291Z,89543.16
2022-12-11T01:14:42.011Z,89552.13
2022-12-11T01:17:08.649Z,89557.84
2022-12-11T01:19:35.221Z,89558.06
2022-12-11T01:22:01.844Z,89533.22
2022-12-11T01:24:28.559Z,89556.06
2022-12-11T01:26:55.176Z,89540.69
2022-12-11T01:29:21.795Z,89555.31
2022-12-11T01:31:48.480Z,89550.91
2022-12-11T01:34:15.053Z,89566.19
2022-12-11T01:36:41.706Z,89558.91
2022-12-11T01:39:08.406Z,89578.25
2022-12-11T01:41:35.040Z,89561.19
2022-12-11T01:44:08.591Z,89569.22
2022-12-11T01:46:36.454Z,89606.56
2022-12-11T01:49:05.933Z,89643.69
2022-12-11T01:51:33.571Z,89631.91
2022-12-11T01:54:02.294Z,89640.66
2022-12-11T01:56:29.661Z,89640.28
2022-12-11T01:58:57.657Z,89639.06
2022-12-11T02:02:22.850Z,89630.22
2022-12-11T02:04:49.602Z,89619.69
2022-12-11T02:07:16.358Z,89621.72
2022-12-11T02:09:44.455Z,89611.63
2022-12-11T02:12:29.166Z,89598.09
2022-12-11T02:15:17.465Z,89613.59
2022-12-11T02:18:15.356Z,89612.34
2022-12-11T02:21:01.131Z,89596.16
2022-12-11T02:23:32.515Z,89595.13
2022-12-11T02:26:21.181Z,89604.06
2022-12-11T02:28:58.534Z,89602.75
2022-12-11T02:31:55.962Z,89580.31
2022-12-11T02:34:42.163Z,89566.13
2022-12-11T02:37:12.509Z,89551.06
2022-12-11T02:39:39.905Z,89543.38
2022-12-11T02:42:06.497Z,89546.53
2022-12-11T02:44:33.738Z,89545.50
2022-12-11T02:47:00.453Z,89546.44
2022-12-11T02:49:27.165Z,89549.63
2022-12-11T02:51:53.739Z,89546.06
2022-12-11T02:54:22.775Z,89560.06
2022-12-11T02:57:06.615Z,89592.47
2022-12-11T02:59:38.217Z,89613.59
2022-12-11T03:02:04.976Z,89611.59
2022-12-11T03:04:31.731Z,89613.50
2022-12-11T03:07:00.025Z,89603.75
2022-12-11T03:09:27.870Z,89607.00
2022-12-11T03:11:54.472Z,89606.66
2022-12-11T03:14:21.097Z,89607.44
2022-12-11T03:17:14.434Z,89605.94
2022-12-11T03:20:06.885Z,89596.31
2022-12-11T03:22:39.274Z,89610.06
2022-12-11T03:25:26.047Z,89612.28
2022-12-11T03:28:11.464Z,89630.41
2022-12-11T03:30:38.156Z,89623.41
2022-12-11T03:33:06.944Z,89620.63
2022-12-11T03:35:36.089Z,89620.75
2022-12-11T03:38:05.472Z,89609.56
2022-12-11T03:40:33.285Z,89605.78
2022-12-11T03:42:59.913Z,89599.31
2022-12-11T03:45:26.521Z,89594.63
2022-12-11T03:47:53.231Z,89603.19
2022-12-11T03:50:20.032Z,89600.09
2022-12-11T03:52:46.746Z,89613.88
2022-12-11T03:55:14.256Z,89627.25
2022-12-11T03:57:40.949Z,89620.56
2022-12-11T04:00:14.613Z,89639.56
2022-12-11T04:02:41.552Z,89630.00
2022-12-11T04:05:08.849Z,89628.38
2022-12-11T04:07:35.761Z,89638.63
2022-12-11T04:10:02.450Z,89638.34
2022-12-11T04:12:29.122Z,89628.06
2022-12-11T04:15:01.914Z,89626.00
2022-12-11T04:17:50.889Z,89610.06
2022-12-11T04:20:36.320Z,89611.00
2022-12-11T04:23:32.349Z,89606.81
2022-12-11T04:26:14.825Z,89606.31
2022-12-11T04:28:42.216Z,89610.69
2022-12-11T04:31:16.733Z,89608.78
2022-12-11T04:33:43.449Z,89588.53
2022-12-11T04:36:10.349Z,89602.88
2022-12-11T04:38:37.131Z,89602.94
2022-12-11T04:41:10.425Z,89621.31
2022-12-11T04:43:37.133Z,89614.59
2022-12-11T04:46:29.916Z,89615.00
2022-12-11T04:48:57.914Z,89612.72
2022-12-11T04:51:24.919Z,89610.97
2022-12-11T04:53:51.595Z,89612.72
2022-12-11T04:56:18.242Z,89616.31
2022-12-11T04:58:45.046Z,89613.19
2022-12-11T05:01:19.867Z,89621.72
2022-12-11T05:03:46.899Z,89636.97
2022-12-11T05:06:13.732Z,89629.56
2022-12-11T05:08:41.233Z,89643.34
2022-12-11T05:11:10.152Z,89646.47
2022-12-11T05:13:36.733Z,89652.31
2022-12-11T05:16:05.021Z,89668.22
2022-12-11T05:18:31.700Z,89657.03
2022-12-11T05:20:59.764Z,89661.72
2022-12-11T05:23:26.454Z,89669.56
2022-12-11T05:25:57.542Z,89676.19
2022-12-11T05:28:25.001Z,89674.84
2022-12-11T05:31:09.111Z,89668.50
2022-12-11T05:33:35.803Z,89670.78
2022-12-11T05:36:02.408Z,89674.41
2022-12-11T05:38:29.041Z,89659.44
2022-12-11T05:40:59.566Z,89664.97
2022-12-11T05:43:27.200Z,89663.47
2022-12-11T05:45:54.226Z,89661.13
2022-12-11T05:48:21.110Z,89664.16
2022-12-11T05:51:00.622Z,89659.41
2022-12-11T05:53:27.518Z,89656.69
2022-12-11T05:55:54.100Z,89656.72
2022-12-11T05:58:20.818Z,89648.25
2022-12-11T06:00:47.953Z,89663.19
2022-12-11T06:03:14.661Z,89655.09
2022-12-11T06:05:41.781Z,89650.34
2022-12-11T06:08:08.564Z,89644.56
2022-12-11T06:10:35.304Z,89637.09
2022-12-11T06:13:01.951Z,89637.41
2022-12-11T06:15:28.589Z,89627.03
2022-12-11T06:17:55.168Z,89620.38
2022-12-11T06:20:21.842Z,89622.94
2022-12-11T06:22:48.514Z,89620.50
2022-12-11T06:25:15.101Z,89620.66
2022-12-11T06:27:41.759Z,89627.72
2022-12-11T06:30:09.165Z,89634.75
2022-12-11T06:32:35.818Z,89637.13
2022-12-11T06:35:02.431Z,89632.06
2022-12-11T06:37:29.166Z,89632.97
2022-12-11T06:39:55.727Z,89644.44
2022-12-11T06:42:22.381Z,89638.59
2022-12-11T06:44:49.138Z,89644.66
2022-12-11T06:47:15.735Z,89633.63
2022-12-11T06:49:42.460Z,89636.13
2022-12-11T06:52:12.455Z,89637.94
2022-12-11T06:54:41.708Z,89646.34
2022-12-11T06:57:09.394Z,89656.38
2022-12-11T06:59:36.084Z,89654.03
2022-12-11T07:02:03.027Z,89658.19
2022-12-11T07:04:30.664Z,89661.22
2022-12-11T07:06:57.538Z,89665.47
2022-12-11T07:09:24.663Z,89682.44
2022-12-11T07:11:51.786Z,89691.22
2022-12-11T07:14:18.501Z,89694.94
2022-12-11T07:16:45.395Z,89688.53
2022-12-11T07:19:12.110Z,89696.41
2022-12-11T07:21:38.761Z,89696.50
2022-12-11T07:24:05.784Z,89702.47
2022-12-11T07:26:32.636Z,89701.81
2022-12-11T07:28:59.538Z,89703.56
2022-12-11T07:31:27.193Z,89699.53
2022-12-11T07:33:57.805Z,89694.44
2022-12-11T07:36:24.870Z,89716.44
2022-12-11T07:38:51.728Z,89714.97
2022-12-11T07:41:18.480Z,89714.59
2022-12-11T07:43:45.565Z,89716.00
2022-12-11T07:46:16.880Z,89711.94
2022-12-11T07:48:44.927Z,89712.84
2022-12-11T07:51:16.485Z,89715.06
2022-12-11T07:53:47.241Z,89705.72
2022-12-11T07:56:14.265Z,89714.63
2022-12-11T07:58:40.895Z,89720.97
2022-12-11T08:01:18.412Z,89735.91
2022-12-11T08:03:45.147Z,89734.09
2022-12-11T08:06:11.818Z,89738.81
2022-12-11T08:08:38.905Z,89723.34
2022-12-11T08:11:06.605Z,89724.41
2022-12-11T08:13:33.454Z,89727.88
2022-12-11T08:16:02.849Z,89727.09
2022-12-11T08:18:30.455Z,89731.34
2022-12-11T08:20:57.111Z,89734.50
2022-12-11T08:23:23.753Z,89738.06
2022-12-11T08:25:50.403Z,89718.56
2022-12-11T08:28:17.041Z,89724.91
2022-12-11T08:30:43.690Z,89721.69
2022-12-11T08:33:10.285Z,89728.59
2022-12-11T08:35:39.800Z,89723.31
2022-12-11T08:38:06.446Z,89717.16
2022-12-11T08:40:33.069Z,89714.03
2022-12-11T08:42:59.750Z,89720.06
2022-12-11T08:45:27.170Z,89719.22
2022-12-11T08:47:54.083Z,89725.63
2022-12-11T08:50:20.767Z,89732.09
2022-12-11T08:52:47.491Z,89725.06
2022-12-11T08:55:14.302Z,89732.81
2022-12-11T08:57:41.131Z,89719.34
2022-12-11T09:00:09.270Z,89722.50
2022-12-11T09:02:35.994Z,89721.41
2022-12-11T09:05:02.787Z,89714.50
2022-12-11T09:07:29.533Z,89725.97
2022-12-11T09:09:56.105Z,89729.16
2022-12-11T09:12:23.112Z,89732.19
2022-12-11T09:14:49.841Z,89719.66
2022-12-11T09:17:16.565Z,89728.56
2022-12-11T09:19:43.165Z,89708.03
2022-12-11T09:22:11.269Z,89692.03
2022-12-11T09:24:38.396Z,89695.22
2022-12-11T09:27:05.500Z,89698.28
2022-12-11T09:29:32.609Z,89708.72
2022-12-11T09:31:59.178Z,89695.31
2022-12-11T09:34:29.240Z,89708.97
2022-12-11T09:36:56.378Z,89698.50
2022-12-11T09:39:23.047Z,89698.63
2022-12-11T09:41:58.181Z,89694.06
2022-12-11T09:44:50.575Z,89696.53
2022-12-11T09:47:36.181Z,89696.00
2022-12-11T09:50:04.904Z,89690.06
2022-12-11T09:52:38.535Z,89694.13
2022-12-11T09:55:26.097Z,89693.38
2022-12-11T09:58:11.468Z,89690.38
2022-12-11T10:00:46.701Z,89692.13
2022-12-11T10:03:31.914Z,89690.13
2022-12-11T10:06:26.264Z,89700.19
2022-12-11T10:09:14.706Z,89693.22
2022-12-11T10:11:57.118Z,89692.78
2022-12-11T10:14:52.169Z,89683.59
2022-12-11T10:17:21.484Z,89686.63
2022-12-11T10:19:48.179Z,89692.09
2022-12-11T10:22:24.697Z,89690.56
2022-12-11T10:25:11.612Z,89687.44
2022-12-11T10:27:39.135Z,89684.50
2022-12-11T10:30:15.056Z,89670.88
2022-12-11T10:32:59.701Z,89673.53
2022-12-11T10:35:39.770Z,89681.50
2022-12-11T10:38:29.516Z,89678.53
2022-12-11T10:40:58.596Z,89683.13
2022-12-11T10:43:36.184Z,89672.00
2022-12-11T10:46:03.431Z,89687.44
2022-12-11T10:48:30.106Z,89681.97
2022-12-11T10:51:05.516Z,89691.56
2022-12-11T10:53:32.641Z,89682.91
2022-12-11T10:55:59.842Z,89676.53
2022-12-11T10:58:28.647Z,89664.13
2022-12-11T11:01:14.490Z,89668.38
2022-12-11T11:04:06.748Z,89662.66
2022-12-11T11:06:33.496Z,89652.81
2022-12-11T11:09:01.282Z,89642.16
2022-12-11T11:11:38.240Z,89645.34
2022-12-11T11:14:31.287Z,89653.19
2022-12-11T11:16:58.036Z,89648.44
2022-12-11T11:19:24.656Z,89649.97
2022-12-11T11:21:56.660Z,89639.25
2022-12-11T11:24:45.390Z,89649.41
2022-12-11T11:27:20.279Z,89639.22
2022-12-11T11:29:52.832Z,89640.00
2022-12-11T11:32:22.673Z,89633.91
2022-12-11T11:34:49.425Z,89642.91
2022-12-11T11:37:36.223Z,89630.50
2022-12-11T11:40:08.448Z,89626.47
2022-12-11T11:42:44.186Z,89624.00
2022-12-11T11:45:16.773Z,89630.47
2022-12-11T11:47:50.992Z,89620.41
2022-12-11T11:50:22.552Z,89621.97
2022-12-11T11:53:02.860Z,89620.84
2022-12-11T11:56:23.289Z,89626.19
2022-12-11T11:59:11.439Z,89621.75
2022-12-11T12:01:38.039Z,89621.66
2022-12-11T12:04:04.921Z,89618.28
2022-12-11T12:06:50.856Z,89621.34
2022-12-11T12:09:20.781Z,89616.56
2022-12-11T12:11:56.588Z,89619.59
2022-12-11T12:14:51.994Z,89625.13
2022-12-11T12:17:56.059Z,89619.50
2022-12-11T12:20:29.065Z,89613.78
2022-12-11T12:23:20.606Z,89620.78
2022-12-11T12:26:01.846Z,89616.47
2022-12-11T12:28:41.468Z,89617.28
2022-12-11T12:31:20.751Z,89618.13
2022-12-11T12:34:18.377Z,89608.78
2022-12-11T12:37:00.939Z,89612.22
2022-12-11T12:39:33.581Z,89616.81
2022-12-11T12:42:16.284Z,89602.63
2022-12-11T12:45:03.939Z,89609.41
2022-12-11T12:47:32.550Z,89621.31
2022-12-11T12:49:59.168Z,89618.88
2022-12-11T12:52:30.811Z,89621.13
2022-12-11T12:55:16.503Z,89617.13
2022-12-11T12:58:00.337Z,89612.16
2022-12-11T13:00:27.097Z,89613.09
2022-12-11T13:02:56.080Z,89613.41
2022-12-11T13:05:27.193Z,89616.94
2022-12-11T13:07:58.352Z,89626.94
2022-12-11T13:10:33.364Z,89631.84
2022-12-11T13:13:00.805Z,89639.16
2022-12-11T13:15:34.949Z,89641.41
2022-12-11T13:18:02.365Z,89640.22
2022-12-11T13:20:30.901Z,89632.25
2022-12-11T13:23:06.832Z,89640.50
2022-12-11T13:25:52.452Z,89641.84
2022-12-11T13:28:47.969Z,89651.56
2022-12-11T13:31:14.595Z,89655.66
2022-12-11T13:33:54.925Z,89656.56
2022-12-11T13:36:24.603Z,89663.09
2022-12-11T13:39:08.901Z,89673.59
2022-12-11T13:41:36.457Z,89674.31
2022-12-11T13:44:03.242Z,89682.28
2022-12-11T13:46:31.920Z,89688.91
2022-12-11T13:49:01.110Z,89682.94
2022-12-11T13:51:30.255Z,89698.13
2022-12-11T13:54:17.799Z,89696.94
2022-12-11T13:57:00.696Z,89696.06
2022-12-11T13:59:32.785Z,89694.13
2022-12-11T14:02:01.609Z,89699.22
2022-12-11T14:04:28.317Z,89690.09
2022-12-11T14:06:56.072Z,89690.53
2022-12-11T14:09:24.044Z,89692.03
2022-12-11T14:11:56.503Z,89710.69
2022-12-11T14:14:40.719Z,89711.19
2022-12-11T14:17:12.614Z,89690.25
2022-12-11T14:19:39.273Z,89664.44
2022-12-11T14:22:08.025Z,89668.22
2022-12-11T14:24:34.712Z,89675.16
2022-12-11T14:27:01.419Z,89696.50
2022-12-11T14:29:30.424Z,89711.47
2022-12-11T14:32:00.088Z,89715.00
2022-12-11T14:34:38.549Z,89721.72
2022-12-11T14:37:06.291Z,89715.25
2022-12-11T14:39:54.470Z,89716.81
2022-12-11T14:42:23.405Z,89720.00
2022-12-11T14:44:50.976Z,89717.78
2022-12-11T14:47:23.041Z,89712.50
2022-12-11T14:50:15.519Z,89695.31
2022-12-11T14:52:43.735Z,89709.59
2022-12-11T14:55:18.267Z,89704.91
2022-12-11T14:57:45.955Z,89690.38
2022-12-11T15:00:38.169Z,89706.25
2022-12-11T15:03:23.290Z,89712.94
2022-12-11T15:05:55.017Z,89711.94
2022-12-11T15:08:32.514Z,89713.84
2022-12-11T15:11:12.245Z,89714.59
2022-12-11T15:13:55.060Z,89714.47
2022-12-11T15:16:22.403Z,89709.94
2022-12-11T15:18:53.487Z,89704.59
2022-12-11T15:21:20.314Z,89702.63
2022-12-11T15:23:54.812Z,89694.00
2022-12-11T15:26:21.763Z,89695.88
2022-12-11T15:28:48.536Z,89699.78
2022-12-11T15:31:27.599Z,89695.56
2022-12-11T15:33:54.236Z,89708.06
2022-12-11T15:36:33.208Z,89703.38
2022-12-11T15:38:59.868Z,89715.81
2022-12-11T15:41:26.756Z,89726.09
2022-12-11T16:45:54.514Z,89878.09
2022-12-11T16:48:21.454Z,89887.44
2022-12-11T16:50:48.043Z,89903.38
2022-12-11T16:53:15.370Z,89921.34
2022-12-11T16:55:42.509Z,89924.50
2022-12-11T16:58:09.549Z,89923.63
2022-12-11T17:00:36.113Z,89930.13
2022-12-11T17:03:02.815Z,89925.78
2022-12-11T17:05:29.371Z,89932.28
2022-12-11T17:07:56.083Z,89933.13
2022-12-11T17:10:22.901Z,89925.59
2022-12-11T17:12:49.522Z,89937.03
2022-12-11T17:15:16.144Z,89940.50
2022-12-11T17:17:45.869Z,89947.91
2022-12-11T17:20:12.629Z,89956.03
2022-12-11T17:22:39.298Z,89964.63
2022-12-11T17:25:06.182Z,89967.53
2022-12-11T17:27:32.749Z,89969.41
2022-12-11T17:29:59.435Z,89953.56
2022-12-11T17:32:26.202Z,89955.97
2022-12-11T17:34:52.820Z,89951.75
2022-12-11T17:37:20.180Z,89956.41
2022-12-11T17:53:30.388Z,89966.72
2022-12-11T17:56:00.065Z,89956.09
2022-12-11T17:58:27.010Z,89958.22
2022-12-11T18:00:54.273Z,89957.38
2022-12-11T18:03:21.235Z,89956.44
2022-12-11T18:05:52.104Z,89955.41
2022-12-11T18:08:21.637Z,89962.22
2022-12-11T18:10:48.356Z,89968.66
2022-12-11T18:13:14.980Z,89964.72
2022-12-11T18:15:42.050Z,89958.25
2022-12-11T18:18:08.917Z,89968.81
2022-12-11T18:20:35.706Z,89970.13
2022-12-11T18:23:02.519Z,89964.34
2022-12-11T18:25:29.236Z,89963.97
2022-12-11T18:27:56.040Z,89953.47
2022-12-11T18:30:23.638Z,89952.44
2022-12-11T18:32:50.789Z,89953.53
2022-12-11T18:35:17.545Z,89960.69
2022-12-11T18:37:44.320Z,89959.78
2022-12-11T18:40:11.986Z,89967.34
2022-12-11T18:42:38.665Z,89966.09
2022-12-11T18:45:05.910Z,89972.81
2022-12-11T18:47:32.539Z,89971.34
2022-12-11T18:50:03.922Z,89970.75
2022-12-11T18:52:33.942Z,89972.81
2022-12-11T18:55:00.569Z,89977.13
2022-12-11T18:57:27.214Z,89959.69
2022-12-11T18:59:54.107Z,89964.28
2022-12-11T19:02:21.076Z,89965.81
2022-12-11T19:04:47.742Z,89966.09
2022-12-11T19:07:14.461Z,89962.84
2022-12-11T19:09:46.263Z,89975.00
2022-12-11T19:12:14.754Z,89969.19
2022-12-11T19:14:41.551Z,89975.00
2022-12-11T19:17:08.155Z,89978.47
2022-12-11T19:19:36.034Z,89990.91
2022-12-11T19:22:02.764Z,89986.06
2022-12-11T19:24:29.409Z,89985.31
2022-12-11T19:26:56.019Z,89984.41
2022-12-11T19:29:27.889Z,89983.91
2022-12-11T19:31:55.642Z,89991.13
2022-12-11T19:34:22.687Z,89991.59
2022-12-11T19:36:49.480Z,89995.59
2022-12-11T19:39:16.087Z,89996.34
2022-12-11T19:41:42.886Z,90003.75
2022-12-11T19:44:09.579Z,90006.50
2022-12-11T19:46:36.326Z,90015.13
2022-12-11T19:49:03.083Z,90021.25
2022-12-11T19:51:38.656Z,90014.97
2022-12-11T19:54:09.355Z,90019.56
2022-12-11T19:56:36.166Z,90022.91
2022-12-11T19:59:04.214Z,90018.78
2022-12-11T20:01:32.122Z,90015.16
2022-12-11T20:04:00.344Z,90010.09
2022-12-11T20:06:31.374Z,90012.53
2022-12-11T20:08:58.323Z,90011.13
2022-12-11T20:11:25.005Z,90023.25
2022-12-11T20:13:52.004Z,90023.09
2022-12-11T20:16:28.862Z,90013.75
2022-12-11T20:19:05.755Z,90020.66
2022-12-11T20:21:32.521Z,90018.66
2022-12-11T20:23:59.542Z,90029.97
2022-12-11T20:26:26.335Z,90039.91
2022-12-11T20:28:53.304Z,90031.22
2022-12-11T20:31:23.310Z,90036.25
2022-12-11T20:33:50.367Z,90027.84
2022-12-11T20:36:17.643Z,90031.66
2022-12-11T20:38:44.493Z,90029.81
2022-12-11T20:41:15.808Z,90031.97
2022-12-11T20:43:42.501Z,90038.19
2022-12-11T20:46:10.025Z,90064.25
2022-12-11T20:48:36.998Z,90068.84
2022-12-11T20:51:04.068Z,90068.06
2022-12-11T20:53:30.835Z,90063.13
2022-12-11T20:55:57.491Z,90058.53
2022-12-11T20:58:24.288Z,90057.78
2022-12-11T21:00:51.058Z,90065.28
2022-12-11T21:03:17.920Z,90062.34
2022-12-11T21:05:45.200Z,90058.66
2022-12-11T21:08:12.107Z,90057.28
2022-12-11T21:10:42.677Z,90069.06
2022-12-11T21:13:09.304Z,90061.91
2022-12-11T21:15:37.180Z,90056.91
2022-12-11T21:18:03.980Z,90055.81
2022-12-11T21:20:30.557Z,90057.47
2022-12-11T21:22:57.638Z,90058.25
2022-12-11T21:25:25.020Z,90053.47
2022-12-11T21:27:51.641Z,90055.47
2022-12-11T21:30:18.453Z,90053.88
2022-12-11T21:32:45.087Z,90052.22
2022-12-11T21:35:12.054Z,90047.59
2022-12-11T21:37:41.683Z,90057.56
2022-12-11T21:40:09.233Z,90058.59
2022-12-11T21:42:35.830Z,90064.66
2022-12-11T21:47:50.209Z,90061.72
2022-12-11T21:50:17.099Z,90055.31
2022-12-11T21:52:44.118Z,90074.56
2022-12-11T21:55:11.666Z,90073.72
2022-12-11T21:57:38.594Z,90080.22
2022-12-11T22:00:05.933Z,90089.84
2022-12-11T22:02:37.480Z,90090.72
2022-12-11T22:05:07.651Z,90088.75
2022-12-11T22:07:34.256Z,90080.91
2022-12-11T22:10:00.933Z,90077.53
2022-12-11T22:12:28.035Z,90083.81
2022-12-11T22:14:54.655Z,90070.72
2022-12-11T22:17:21.498Z,90071.03
2022-12-11T22:19:48.265Z,90062.47
2022-12-11T22:22:14.954Z,90063.81
2022-12-11T22:24:41.686Z,90052.44
2022-12-11T22:27:08.346Z,90049.22
2022-12-11T22:29:35.580Z,90047.31
2022-12-11T22:32:02.237Z,90043.22
2022-12-11T22:34:28.994Z,90061.28
2022-12-11T22:36:56.298Z,90074.44
2022-12-11T22:39:23.192Z,90074.84
2022-12-11T22:41:49.868Z,90067.06
2022-12-11T22:44:18.428Z,90076.38
2022-12-11T22:46:49.721Z,90066.72
2022-12-11T22:49:17.631Z,90064.44
2022-12-11T22:51:44.246Z,90068.69
2022-12-11T22:54:11.414Z,90070.38
2022-12-11T22:56:38.330Z,90068.94
2022-12-11T22:59:04.957Z,90066.81
2022-12-11T23:01:31.891Z,90055.13
2022-12-11T23:03:58.627Z,90055.13
2022-12-11T23:06:25.390Z,90059.06
2022-12-11T23:08:53.014Z,90065.44
2022-12-11T23:11:24.860Z,90067.22
2022-12-11T23:13:51.985Z,90069.63
2022-12-11T23:16:18.683Z,90075.63
2022-12-11T23:18:45.441Z,90075.69
2022-12-11T23:21:12.088Z,90075.88
2022-12-11T23:23:38.795Z,90086.19
2022-12-11T23:26:05.913Z,90104.41
2022-12-11T23:28:32.494Z,90098.75
2022-12-11T23:30:59.203Z,90105.94
2022-12-11T23:33:26.048Z,90119.50
2022-12-11T23:35:52.774Z,90121.69
2022-12-11T23:38:19.448Z,90119.56
2022-12-11T23:40:46.106Z,90114.03
2022-12-11T23:43:12.702Z,90116.94
2022-12-11T23:45:39.376Z,90136.41
2022-12-11T23:48:06.073Z,90144.69
2022-12-11T23:50:33.047Z,90143.22
2022-12-11T23:52:59.656Z,90143.50
2022-12-11T23:55:27.417Z,90157.66
2022-12-11T23:57:54.135Z,90165.53
